createdAt,value
2023-03-19T00:01:49.791Z,14.40
2023-03-19T00:04:21.516Z,15.13
2023-03-19T00:06:53.508Z,14.95
2023-03-19T00:09:24.987Z,15.60
2023-03-19T00:11:56.472Z,14.90
2023-03-19T00:14:27.894Z,16.80
2023-03-19T00:16:59.476Z,19.45
2023-03-19T00:19:30.871Z,19.33
2023-03-19T00:22:02.506Z,20.98
2023-03-19T00:24:33.932Z,22.50
2023-03-19T00:27:05.406Z,20.75
2023-03-19T00:29:36.858Z,22.10
2023-03-19T00:32:08.375Z,23.65
2023-03-19T00:34:40.129Z,23.27
2023-03-19T00:37:11.614Z,23.85
2023-03-19T00:39:43.064Z,23.40
2023-03-19T00:42:14.553Z,23.08
2023-03-19T00:44:46.036Z,21.23
2023-03-19T00:47:17.744Z,20.48
2023-03-19T00:49:49.571Z,18.80
2023-03-19T00:52:21.178Z,19.33
2023-03-19T00:54:52.715Z,17.23
2023-03-19T00:57:24.140Z,16.40
2023-03-19T00:59:55.559Z,15.70
2023-03-19T01:02:27.082Z,15.65
2023-03-19T01:04:58.584Z,16.02
2023-03-19T01:07:30.071Z,14.45
2023-03-19T01:10:01.579Z,14.50
2023-03-19T01:12:33.504Z,13.68
2023-03-19T01:15:05.666Z,14.80
2023-03-19T01:17:37.245Z,14.55
2023-03-19T01:20:11.381Z,13.50
2023-03-19T01:22:43.008Z,14.00
2023-03-19T01:25:14.621Z,13.65
2023-03-19T01:27:46.116Z,12.60
2023-03-19T01:30:17.985Z,13.05
2023-03-19T01:32:49.873Z,14.82
2023-03-19T01:35:21.326Z,15.55
2023-03-19T01:37:52.824Z,17.38
2023-03-19T01:40:24.250Z,19.63
2023-03-19T01:43:12.000Z,18.70
2023-03-19T01:45:44.581Z,18.77
2023-03-19T01:48:36.519Z,19.38
2023-03-19T01:51:10.657Z,19.17
2023-03-19T01:53:51.578Z,18.93
2023-03-19T01:56:31.731Z,18.50
2023-03-19T01:59:09.252Z,19.57
2023-03-19T02:01:50.717Z,18.67
2023-03-19T02:04:23.593Z,19.15
2023-03-19T02:06:56.687Z,18.50
2023-03-19T02:09:29.504Z,17.58
2023-03-19T02:14:34.193Z,16.85
2023-03-19T02:17:06.500Z,16.17
2023-03-19T02:19:59.762Z,16.75
2023-03-19T02:22:31.995Z,16.80
2023-03-19T02:25:11.196Z,17.87
2023-03-19T02:27:42.832Z,16.38
2023-03-19T02:30:26.724Z,17.63
2023-03-19T02:32:58.514Z,18.50
2023-03-19T02:35:34.045Z,18.65
2023-03-19T02:38:06.237Z,19.75
2023-03-19T02:41:02.473Z,20.77
2023-03-19T02:43:39.552Z,26.15
2023-03-19T02:46:13.219Z,23.58
2023-03-19T02:48:44.798Z,29.40
2023-03-19T02:51:16.218Z,28.77
2023-03-19T02:53:47.688Z,31.07
2023-03-19T02:56:19.133Z,30.92
2023-03-19T02:58:50.596Z,33.40
2023-03-19T03:01:22.053Z,33.58
2023-03-19T03:03:53.590Z,33.55
2023-03-19T03:06:25.062Z,33.58
2023-03-19T03:08:56.475Z,34.35
2023-03-19T03:11:27.965Z,35.83
2023-03-19T03:13:59.594Z,35.80
2023-03-19T03:16:31.100Z,37.40
2023-03-19T03:19:02.706Z,37.72
2023-03-19T03:21:35.577Z,40.20
2023-03-19T03:24:07.433Z,33.95
2023-03-19T03:26:38.950Z,32.95
2023-03-19T03:29:10.463Z,32.42
2023-03-19T03:31:42.004Z,29.27
2023-03-19T03:34:13.646Z,32.33
2023-03-19T03:36:45.153Z,36.95
2023-03-19T03:39:16.595Z,39.92
2023-03-19T03:41:48.031Z,43.83
2023-03-19T03:44:19.486Z,44.88
2023-03-19T03:46:50.937Z,46.42
2023-03-19T03:49:23.057Z,45.88
2023-03-19T03:51:54.463Z,45.35
2023-03-19T03:54:26.157Z,43.60
2023-03-19T03:56:57.638Z,39.75
2023-03-19T03:59:29.186Z,38.70
2023-03-19T04:02:00.697Z,36.80
2023-03-19T04:04:32.177Z,36.60
2023-03-19T04:07:03.623Z,35.58
2023-03-19T04:09:35.120Z,35.73
2023-03-19T04:12:06.674Z,36.22
2023-03-19T04:14:38.152Z,38.53
2023-03-19T04:17:09.796Z,40.35
2023-03-19T04:19:41.232Z,38.38
2023-03-19T04:22:12.678Z,42.15
2023-03-19T04:24:44.104Z,41.63
2023-03-19T04:27:15.560Z,37.45
2023-03-19T04:29:47.051Z,41.17
2023-03-19T04:32:18.659Z,40.28
2023-03-19T04:34:50.060Z,47.53
2023-03-19T04:37:21.521Z,43.33
2023-03-19T04:39:52.942Z,48.88
2023-03-19T04:42:24.395Z,48.05
2023-03-19T04:44:55.821Z,50.33
2023-03-19T04:47:27.222Z,53.83
2023-03-19T04:49:58.701Z,48.35
2023-03-19T04:52:30.224Z,56.60
2023-03-19T04:55:01.619Z,55.25
2023-03-19T04:57:33.041Z,57.20
2023-03-19T05:00:04.908Z,58.20
2023-03-19T05:02:36.317Z,55.30
2023-03-19T05:05:08.406Z,54.88
2023-03-19T05:07:40.700Z,53.35
2023-03-19T05:10:12.221Z,62.50
2023-03-19T05:12:43.630Z,60.33
2023-03-19T05:15:15.806Z,65.53
2023-03-19T05:17:47.217Z,70.13
2023-03-19T05:20:18.775Z,59.67
2023-03-19T05:22:52.801Z,59.07
2023-03-19T05:25:24.321Z,53.90
2023-03-19T05:27:56.212Z,57.25
2023-03-19T05:30:27.764Z,51.42
2023-03-19T05:33:00.035Z,53.77
2023-03-19T05:35:31.707Z,60.45
2023-03-19T05:38:03.381Z,64.67
2023-03-19T05:40:35.335Z,59.10
2023-03-19T05:43:06.938Z,71.07
2023-03-19T05:45:38.496Z,69.90
2023-03-19T05:48:09.901Z,71.78
2023-03-19T05:50:41.289Z,70.57
2023-03-19T05:53:12.721Z,78.13
2023-03-19T05:55:44.144Z,68.13
2023-03-19T05:58:16.153Z,62.10
2023-03-19T06:00:47.653Z,88.07
2023-03-19T06:03:19.100Z,69.25
2023-03-19T06:05:50.703Z,71.22
2023-03-19T06:08:22.174Z,71.28
2023-03-19T06:10:53.803Z,63.50
2023-03-19T06:13:25.266Z,69.27
2023-03-19T06:15:56.928Z,70.97
2023-03-19T06:18:28.408Z,70.78
2023-03-19T06:21:00.157Z,74.53
2023-03-19T06:23:31.765Z,71.07
2023-03-19T06:26:03.480Z,71.43
2023-03-19T06:28:34.937Z,76.32
2023-03-19T06:31:06.466Z,87.97
2023-03-19T06:33:37.963Z,78.10
2023-03-19T06:36:09.554Z,89.40
2023-03-19T06:38:41.027Z,87.22
2023-03-19T06:41:12.632Z,83.65
2023-03-19T06:43:44.081Z,88.30
2023-03-19T06:46:15.602Z,91.25
2023-03-19T06:48:47.151Z,80.00
2023-03-19T06:51:18.595Z,75.25
2023-03-19T06:53:50.045Z,79.38
2023-03-19T06:56:21.513Z,87.10
2023-03-19T06:58:53.053Z,100.43
2023-03-19T07:01:25.246Z,79.32
2023-03-19T07:03:56.789Z,89.70
2023-03-19T07:06:28.245Z,78.97
2023-03-19T07:08:59.665Z,72.35
2023-03-19T07:11:31.083Z,90.88
2023-03-19T07:14:03.060Z,88.97
2023-03-19T07:16:34.716Z,97.57
2023-03-19T07:19:06.186Z,88.55
2023-03-19T07:21:37.627Z,86.15
2023-03-19T07:24:09.125Z,87.68
2023-03-19T07:26:40.665Z,75.25
2023-03-19T07:29:12.548Z,91.88
2023-03-19T07:31:44.077Z,77.32
2023-03-19T07:34:15.564Z,81.75
2023-03-19T07:36:47.022Z,72.47
2023-03-19T07:39:19.296Z,75.47
2023-03-19T07:41:50.760Z,80.32
2023-03-19T07:44:22.209Z,85.03
2023-03-19T07:46:53.685Z,72.65
2023-03-19T07:49:25.553Z,73.88
2023-03-19T07:51:57.000Z,78.40
2023-03-19T07:54:28.512Z,77.40
2023-03-19T07:56:59.978Z,72.60
2023-03-19T07:59:31.386Z,75.70
2023-03-19T08:02:02.878Z,76.28
2023-03-19T08:04:34.425Z,74.75
2023-03-19T08:07:05.947Z,68.80
2023-03-19T08:09:37.400Z,67.85
2023-03-19T08:12:09.235Z,75.80
2023-03-19T08:14:40.729Z,65.25
2023-03-19T08:17:12.266Z,66.57
2023-03-19T08:19:43.847Z,69.50
2023-03-19T08:22:15.292Z,72.35
2023-03-19T08:24:46.739Z,73.50
2023-03-19T08:27:18.269Z,67.80
2023-03-19T08:29:49.670Z,70.60
2023-03-19T08:32:21.085Z,66.63
2023-03-19T08:34:52.550Z,75.75
2023-03-19T08:37:24.025Z,74.10
2023-03-19T08:39:55.450Z,76.53
2023-03-19T08:42:26.913Z,78.57
2023-03-19T08:44:58.408Z,72.63
2023-03-19T08:47:29.812Z,68.40
2023-03-19T08:50:01.326Z,76.05
2023-03-19T08:52:32.904Z,70.15
2023-03-19T08:55:05.012Z,73.30
2023-03-19T08:57:36.657Z,68.85
2023-03-19T09:00:08.821Z,60.23
2023-03-19T09:02:40.284Z,51.35
2023-03-19T09:05:11.838Z,51.30
2023-03-19T09:07:43.297Z,51.20
2023-03-19T09:10:14.799Z,60.92
2023-03-19T09:12:48.430Z,60.97
2023-03-19T09:15:20.249Z,53.00
2023-03-19T09:17:51.816Z,57.90
2023-03-19T09:20:23.318Z,48.10
2023-03-19T09:22:54.770Z,49.33
2023-03-19T09:25:26.205Z,52.22
2023-03-19T09:27:57.707Z,54.40
2023-03-19T09:30:29.102Z,57.30
2023-03-19T09:33:00.752Z,55.50
2023-03-19T09:35:33.144Z,52.17
2023-03-19T09:38:04.691Z,47.45
2023-03-19T09:40:43.519Z,55.35
2023-03-19T09:43:45.625Z,57.47
2023-03-19T09:46:28.871Z,61.72
2023-03-19T09:49:09.327Z,50.83
2023-03-19T09:51:48.844Z,56.17
2023-03-19T09:54:29.258Z,57.58
2023-03-19T09:57:01.449Z,55.28
2023-03-19T09:59:33.194Z,55.27
2023-03-19T10:02:23.301Z,56.58
2023-03-19T10:05:22.542Z,55.90
2023-03-19T10:08:17.913Z,52.70
2023-03-19T10:11:04.449Z,54.45
2023-03-19T10:14:21.246Z,53.92
2023-03-19T10:16:56.888Z,56.15
2023-03-19T10:20:00.523Z,53.10
2023-03-19T10:22:50.259Z,49.22
2023-03-19T10:25:26.654Z,49.78
2023-03-19T10:28:11.989Z,58.70
2023-03-19T10:30:50.831Z,57.05
2023-03-19T10:33:31.861Z,53.05
2023-03-19T10:36:10.764Z,52.75
2023-03-19T10:38:43.942Z,49.92
2023-03-19T10:41:27.578Z,49.70
2023-03-19T10:44:03.745Z,53.40
2023-03-19T10:46:39.191Z,42.00
2023-03-19T10:49:15.322Z,41.33
2023-03-19T10:51:46.895Z,39.85
2023-03-19T10:54:26.594Z,39.53
2023-03-19T10:57:00.134Z,38.03
2023-03-19T10:59:37.973Z,32.03
2023-03-19T11:02:21.292Z,32.37
2023-03-19T11:05:13.814Z,33.95
2023-03-19T11:07:50.205Z,36.20
2023-03-19T11:10:24.254Z,41.27
2023-03-19T11:13:02.934Z,42.92
2023-03-19T11:15:39.020Z,43.03
2023-03-19T11:18:21.488Z,56.45
2023-03-19T11:21:01.366Z,50.60
2023-03-19T11:23:40.520Z,47.10
2023-03-19T11:26:19.667Z,35.85
2023-03-19T11:28:51.991Z,42.15
2023-03-19T11:31:46.846Z,34.55
2023-03-19T11:34:40.429Z,28.00
2023-03-19T11:37:25.109Z,25.73
2023-03-19T11:40:11.965Z,24.80
2023-03-19T11:42:58.335Z,23.05
2023-03-19T11:45:35.449Z,23.53
2023-03-19T11:49:03.890Z,22.08
2023-03-19T11:51:52.964Z,24.55
2023-03-19T11:54:34.129Z,23.90
2023-03-19T11:57:12.060Z,26.42
2023-03-19T11:59:43.476Z,22.27
2023-03-19T12:02:25.455Z,29.80
2023-03-19T12:05:19.324Z,26.83
2023-03-19T12:08:17.914Z,25.27
2023-03-19T12:10:58.760Z,22.38
2023-03-19T12:13:30.170Z,19.20
2023-03-19T12:16:10.883Z,20.13
2023-03-19T12:19:05.986Z,17.60
2023-03-19T12:21:59.220Z,16.85
2023-03-19T12:24:52.368Z,16.52
2023-03-19T12:28:01.735Z,22.65
2023-03-19T12:30:43.548Z,33.80
2023-03-19T12:33:30.009Z,27.83
2023-03-19T12:36:04.484Z,33.90
2023-03-19T12:38:46.458Z,30.38
2023-03-19T12:41:28.828Z,38.25
2023-03-19T12:44:10.377Z,38.72
2023-03-19T12:47:08.199Z,32.55
2023-03-19T12:49:46.339Z,31.52
2023-03-19T12:52:36.467Z,32.47
2023-03-19T12:55:22.983Z,29.38
2023-03-19T12:57:55.821Z,27.10
2023-03-19T13:00:33.098Z,27.25
2023-03-19T13:03:13.488Z,23.33
2023-03-19T13:05:50.607Z,22.85
2023-03-19T13:08:39.761Z,18.77
2023-03-19T13:11:20.027Z,32.95
2023-03-19T13:13:58.850Z,43.15
2023-03-19T13:17:01.302Z,48.67
2023-03-19T13:19:53.450Z,48.67
2023-03-19T13:22:36.923Z,45.92
2023-03-19T13:25:16.388Z,38.40
2023-03-19T13:27:57.235Z,38.35
2023-03-19T13:37:08.850Z,39.10
2023-03-19T13:39:47.267Z,38.00
2023-03-19T13:42:57.972Z,36.75
2023-03-19T13:48:52.022Z,38.67
2023-03-19T13:51:31.459Z,37.83
2023-03-19T13:57:43.148Z,29.45
2023-03-19T14:00:45.733Z,26.92
2023-03-19T14:03:29.828Z,20.95
2023-03-19T14:06:01.715Z,16.17
2023-03-19T14:08:43.944Z,13.55
2023-03-19T14:11:23.977Z,12.20
2023-03-19T14:13:56.254Z,13.20
2023-03-19T14:16:37.093Z,14.30
2023-03-19T14:19:16.922Z,19.60
2023-03-19T14:21:51.403Z,18.85
2023-03-19T14:24:55.256Z,21.05
2023-03-19T14:27:35.631Z,23.23
2023-03-19T14:30:21.175Z,26.05
2023-03-19T14:32:55.682Z,23.45
2023-03-19T14:35:28.172Z,22.38
2023-03-19T14:38:01.277Z,21.63
2023-03-19T14:40:42.967Z,21.10
2023-03-19T14:43:26.219Z,23.52
2023-03-19T14:46:02.232Z,23.80
2023-03-19T14:49:21.124Z,26.13
2023-03-19T14:52:14.468Z,22.03
2023-03-19T14:55:10.572Z,22.02
2023-03-19T14:57:42.138Z,21.70
2023-03-19T15:00:17.397Z,19.85
2023-03-19T15:03:29.822Z,20.23
2023-03-19T15:13:04.246Z,18.55
2023-03-19T15:15:44.315Z,21.60
2023-03-19T15:18:17.192Z,20.85
2023-03-19T15:20:52.083Z,21.85
2023-03-19T15:23:28.670Z,21.43
2023-03-19T15:26:02.811Z,17.45
2023-03-19T15:28:53.773Z,16.45
2023-03-19T15:31:51.004Z,16.42
2023-03-19T15:34:28.994Z,17.10
2023-03-19T15:37:15.091Z,15.70
2023-03-19T15:39:51.403Z,14.95
2023-03-19T15:42:26.511Z,16.85
2023-03-19T15:45:06.752Z,21.58
2023-03-19T15:48:01.702Z,19.38
2023-03-19T15:50:37.312Z,18.92
2023-03-19T15:53:13.198Z,18.02
2023-03-19T15:55:47.996Z,21.00
2023-03-19T15:58:47.503Z,19.83
2023-03-19T16:01:19.550Z,24.85
2023-03-19T16:03:58.580Z,27.77
2023-03-19T16:06:32.881Z,32.38
2023-03-19T16:09:19.262Z,33.50
2023-03-19T16:11:51.899Z,29.42
2023-03-19T16:14:43.539Z,29.25
2023-03-19T16:17:17.707Z,30.00
2023-03-19T16:19:54.276Z,30.50
2023-03-19T16:22:30.516Z,27.08
2023-03-19T16:25:02.139Z,25.80
2023-03-19T16:27:38.692Z,26.70
2023-03-19T16:30:20.620Z,27.98
2023-03-19T16:33:05.570Z,30.45
2023-03-19T16:35:37.494Z,36.03
2023-03-19T16:38:23.718Z,38.38
2023-03-19T16:41:17.155Z,35.88
2023-03-19T16:43:48.698Z,34.93
2023-03-19T16:46:20.344Z,37.47
2023-03-19T16:48:51.794Z,34.13
2023-03-19T16:51:23.279Z,32.17
2023-03-19T16:53:54.739Z,27.73
2023-03-19T16:56:26.307Z,28.20
2023-03-19T16:58:57.861Z,20.83
2023-03-19T17:01:29.531Z,24.30
2023-03-19T17:04:00.941Z,18.70
2023-03-19T17:06:32.955Z,23.73
2023-03-19T17:09:04.408Z,27.10
2023-03-19T17:11:39.036Z,24.20
2023-03-19T17:14:18.634Z,23.08
2023-03-19T17:16:50.233Z,22.15
2023-03-19T17:19:24.504Z,22.88
2023-03-19T17:21:58.525Z,19.67
2023-03-19T17:24:32.711Z,25.40
2023-03-19T17:27:04.501Z,21.23
2023-03-19T17:29:35.989Z,19.77
2023-03-19T17:32:16.631Z,16.90
2023-03-19T17:34:48.081Z,14.35
2023-03-19T17:37:19.519Z,12.27
2023-03-19T17:39:50.920Z,14.10
2023-03-19T17:42:24.353Z,9.52
2023-03-19T17:44:55.785Z,9.57
2023-03-19T17:47:27.297Z,10.38
2023-03-19T17:49:58.856Z,12.32
2023-03-19T17:52:30.339Z,12.80
2023-03-19T17:55:14.526Z,10.05
2023-03-19T17:57:46.310Z,14.50
2023-03-19T18:00:19.892Z,15.68
2023-03-19T18:02:53.988Z,17.92
2023-03-19T18:05:26.210Z,15.60
2023-03-19T18:07:57.646Z,13.98
2023-03-19T18:10:32.637Z,18.05
2023-03-19T18:13:06.867Z,14.43
2023-03-19T18:15:41.777Z,17.90
2023-03-19T18:18:22.040Z,17.67
2023-03-19T18:20:59.535Z,15.57
2023-03-19T18:26:54.793Z,15.43
2023-03-19T18:29:31.183Z,17.53
2023-03-19T18:32:23.202Z,13.68
2023-03-19T18:34:54.745Z,18.75
2023-03-19T18:37:26.523Z,13.60
2023-03-19T18:39:57.952Z,13.73
2023-03-19T18:42:29.400Z,13.07
2023-03-19T18:45:00.863Z,12.18
2023-03-19T18:47:32.533Z,15.73
2023-03-19T18:50:16.246Z,13.63
2023-03-19T18:52:49.814Z,14.35
2023-03-19T18:55:24.019Z,9.57
2023-03-19T18:57:59.201Z,11.17
2023-03-19T19:00:33.650Z,12.93
2023-03-19T19:03:07.198Z,12.13
2023-03-19T19:05:38.607Z,10.20
2023-03-19T19:08:15.687Z,10.75
2023-03-19T19:10:59.031Z,10.25
2023-03-19T19:13:38.657Z,10.88
2023-03-19T19:16:21.280Z,10.77
2023-03-19T19:18:52.740Z,8.50
2023-03-19T19:21:24.137Z,9.15
2023-03-19T19:23:55.578Z,7.70
2023-03-19T19:26:30.348Z,13.98
2023-03-19T19:29:01.957Z,14.73
2023-03-19T19:31:34.645Z,9.63
2023-03-19T19:34:06.166Z,10.07
2023-03-19T19:36:37.555Z,11.55
2023-03-19T19:39:09.914Z,13.02
2023-03-19T19:41:41.367Z,13.00
2023-03-19T19:44:20.233Z,11.93
2023-03-19T19:46:51.706Z,14.05
2023-03-19T19:49:23.131Z,13.15
2023-03-19T19:51:54.582Z,13.80
2023-03-19T19:54:26.052Z,12.95
2023-03-19T19:56:57.539Z,12.25
2023-03-19T19:59:28.997Z,14.87
2023-03-19T20:02:00.477Z,10.48
2023-03-19T20:04:31.909Z,13.90
2023-03-19T20:07:03.467Z,15.98
2023-03-19T20:09:34.947Z,12.38
2023-03-19T20:12:19.276Z,15.52
2023-03-19T20:14:51.410Z,17.02
2023-03-19T20:17:22.956Z,14.23
2023-03-19T20:19:54.434Z,17.20
2023-03-19T20:22:25.942Z,17.60
2023-03-19T20:24:57.468Z,16.05
2023-03-19T20:27:32.828Z,18.30
2023-03-19T20:30:06.501Z,14.38
2023-03-19T20:32:38.452Z,15.40
2023-03-19T20:35:16.963Z,16.03
2023-03-19T20:37:49.904Z,17.15
2023-03-19T20:40:25.338Z,15.98
2023-03-19T20:42:57.140Z,17.08
2023-03-19T20:45:37.565Z,17.45
2023-03-19T20:48:14.814Z,17.97
2023-03-19T20:50:47.326Z,13.63
2023-03-19T20:53:19.001Z,17.17
2023-03-19T20:55:50.528Z,20.77
2023-03-19T20:58:33.346Z,14.57
2023-03-19T21:01:04.957Z,17.20
2023-03-19T21:03:36.491Z,18.27
2023-03-19T21:06:22.740Z,17.33
2023-03-19T21:08:56.342Z,23.80
2023-03-19T21:11:39.241Z,17.13
2023-03-19T21:14:16.481Z,14.90
2023-03-19T21:16:47.945Z,15.17
2023-03-19T21:19:19.329Z,13.50
2023-03-19T21:21:50.785Z,14.63
2023-03-19T21:24:22.420Z,14.52
2023-03-19T21:26:53.889Z,14.65
2023-03-19T21:29:30.766Z,17.05
2023-03-19T21:32:02.241Z,15.07
2023-03-19T21:34:38.585Z,15.50
2023-03-19T21:37:16.649Z,13.50
2023-03-19T21:39:48.083Z,14.73
2023-03-19T21:42:22.024Z,12.32
2023-03-19T21:44:58.052Z,13.05
2023-03-19T21:47:29.504Z,13.60
2023-03-19T21:50:00.986Z,12.23
2023-03-19T21:52:42.732Z,12.23
2023-03-19T21:55:21.492Z,15.32
2023-03-19T21:57:55.814Z,14.60
2023-03-19T22:00:27.289Z,10.80
2023-03-19T22:02:58.768Z,12.77
2023-03-19T22:05:30.376Z,11.15
2023-03-19T22:08:01.809Z,13.68
2023-03-19T22:10:33.470Z,12.02
2023-03-19T22:13:05.101Z,9.68
2023-03-19T22:15:38.033Z,12.13
2023-03-19T22:18:13.389Z,11.50
2023-03-19T22:20:45.907Z,8.70
2023-03-19T22:23:18.453Z,7.05
2023-03-19T22:25:51.750Z,8.90
2023-03-19T22:28:31.165Z,9.18
2023-03-19T22:31:03.878Z,8.07
2023-03-19T22:33:35.560Z,8.55
2023-03-19T22:36:07.394Z,6.13
2023-03-19T22:38:38.862Z,7.15
2023-03-19T22:41:30.947Z,10.63
2023-03-19T22:44:07.014Z,7.97
2023-03-19T22:46:38.505Z,11.05
2023-03-19T22:49:15.563Z,8.13
2023-03-19T22:51:47.030Z,8.87
2023-03-19T22:54:18.518Z,6.97
2023-03-19T22:56:49.949Z,6.97
2023-03-19T22:59:21.394Z,7.82
2023-03-19T23:01:52.842Z,7.68
2023-03-19T23:04:27.300Z,7.93
2023-03-19T23:07:00.051Z,7.13
2023-03-19T23:09:34.357Z,7.38
2023-03-19T23:12:06.941Z,9.13
2023-03-19T23:14:38.395Z,10.80
2023-03-19T23:17:15.450Z,13.13
2023-03-19T23:19:46.916Z,11.07
2023-03-19T23:22:18.315Z,11.07
2023-03-19T23:24:49.816Z,9.35
2023-03-19T23:27:25.813Z,11.68
2023-03-19T23:29:57.351Z,12.55
2023-03-19T23:32:28.801Z,9.50
2023-03-19T23:35:01.846Z,10.27
2023-03-19T23:37:33.563Z,12.65
2023-03-19T23:40:06.424Z,9.30
2023-03-19T23:42:44.668Z,10.90
2023-03-19T23:45:26.918Z,9.30
2023-03-19T23:48:00.186Z,13.30
2023-03-19T23:50:33.036Z,12.25
2023-03-19T23:53:05.015Z,9.02
2023-03-19T23:55:36.691Z,11.32
2023-03-19T23:58:08.408Z,12.20
